Time;durP1;ratioP1;P1;durP2;ratioP2;P2;SDS_P1;SDS_P2;PMS_P1;PMS_P2;Temp;Humidity;BMP_temperature;BMP_pressure;BME280_temperature;BME280_humidity;BME280_pressure;Samples;Min_cycle;Max_cycle;Signal;HPM_P1;HPM_P2
2021/09/02 00:04:54;;;;;;;4.23;3.83;;;;;;;11.31;100.00;101008.56;21061295;28;20222;-65
2021/09/02 00:14:56;;;;;;;5.17;3.53;;;;;;;11.13;100.00;100995.28;21036610;28;20725;-65
2021/09/02 00:25:00;;;;;;;4.43;3.47;;;;;;;10.84;100.00;101006.72;21059614;28;20230;-65
2021/09/02 00:35:02;;;;;;;4.37;3.53;;;;;;;10.50;100.00;101001.50;21037117;28;20234;-66
2021/09/02 00:45:07;;;;;;;4.50;3.73;;;;;;;10.25;100.00;101016.09;21057846;28;20237;-66
2021/09/02 00:55:11;;;;;;;4.80;3.50;;;;;;;10.10;100.00;101024.84;21043628;28;20230;-66
2021/09/02 01:05:15;;;;;;;4.93;3.67;;;;;;;9.97;100.00;101015.75;21050527;28;20828;-65
2021/09/02 01:15:20;;;;;;;6.60;3.80;;;;;;;9.95;100.00;101014.97;21050924;28;20222;-66
2021/09/02 01:25:26;;;;;;;5.30;3.73;;;;;;;9.95;100.00;101017.63;21049820;28;20779;-65
2021/09/02 01:35:31;;;;;;;5.93;4.03;;;;;;;9.86;100.00;101016.28;21072747;28;20447;-65
2021/09/02 01:45:35;;;;;;;4.20;3.20;;;;;;;9.68;100.00;101019.88;21048858;28;20639;-66
2021/09/02 01:55:38;;;;;;;5.50;3.40;;;;;;;9.52;100.00;101025.09;21068842;28;20321;-66
2021/09/02 02:05:42;;;;;;;5.90;4.00;;;;;;;9.38;100.00;101016.91;21044325;28;20225;-66
2021/09/02 02:15:44;;;;;;;5.73;4.23;;;;;;;9.38;100.00;101027.56;21065734;28;20242;-66
2021/09/02 02:25:48;;;;;;;5.10;3.60;;;;;;;9.32;100.00;101035.81;21053426;28;20936;-67
2021/09/02 02:35:51;;;;;;;5.70;3.83;;;;;;;9.25;100.00;101031.75;21065130;28;20352;-66
2021/09/02 02:45:57;;;;;;;5.27;4.27;;;;;;;9.22;100.00;101026.56;21059890;28;20218;-66
2021/09/02 02:55:59;;;;;;;4.50;3.33;;;;;;;9.16;100.00;101011.75;21049522;28;20373;-66
2021/09/02 03:06:03;;;;;;;3.83;3.30;;;;;;;8.95;100.00;100996.75;21064869;28;20257;-68
2021/09/02 03:16:06;;;;;;;5.70;3.60;;;;;;;8.95;100.00;100992.31;21040234;28;20280;-67
2021/09/02 03:26:09;;;;;;;9.70;4.40;;;;;;;9.17;100.00;101002.81;21062368;28;20269;-67
2021/09/02 03:36:12;;;;;;;6.03;4.43;;;;;;;9.46;100.00;101020.06;21039601;28;20761;-66
2021/09/02 03:46:16;;;;;;;4.97;3.70;;;;;;;9.47;100.00;101037.78;21059875;28;20226;-66
2021/09/02 03:56:18;;;;;;;5.03;3.80;;;;;;;9.50;100.00;101042.97;21045787;28;20927;-67
2021/09/02 04:06:22;;;;;;;5.43;3.57;;;;;;;9.43;100.00;101030.84;21052817;28;20234;-66
2021/09/02 04:16:24;;;;;;;4.17;3.47;;;;;;;9.48;100.00;101033.31;21067425;28;20275;-66
2021/09/02 04:26:28;;;;;;;6.10;4.17;;;;;;;9.99;100.00;101029.88;21071540;28;20214;-67
2021/09/02 04:36:30;;;;;;;4.47;3.90;;;;;;;10.57;100.00;101027.75;21065600;28;20271;-66
2021/09/02 04:46:34;;;;;;;3.70;3.13;;;;;;;10.96;100.00;101030.09;21048691;28;20634;-67
2021/09/02 04:56:37;;;;;;;3.80;3.13;;;;;;;11.19;100.00;101016.34;21045711;28;20308;-66
2021/09/02 05:06:40;;;;;;;3.57;3.17;;;;;;;11.44;100.00;101022.97;21073945;28;20300;-64
2021/09/02 05:16:43;;;;;;;5.07;3.93;;;;;;;11.68;100.00;101018.91;20866456;28;20255;-64
2021/09/02 05:26:47;;;;;;;4.17;3.77;;;;;;;11.95;100.00;101015.59;20826811;28;20285;-65
2021/09/02 05:36:49;;;;;;;3.17;2.83;;;;;;;12.50;100.00;101003.31;20806269;28;20747;-64
2021/09/02 05:46:53;;;;;;;4.00;3.70;;;;;;;13.07;100.00;101011.31;20900727;28;20230;-64
2021/09/02 05:56:55;;;;;;;3.70;3.37;;;;;;;13.55;100.00;101007.31;20884959;28;20241;-64
2021/09/02 06:06:59;;;;;;;3.80;3.50;;;;;;;14.38;100.00;101013.34;20896803;28;20603;-64
2021/09/02 06:17:01;;;;;;;3.90;3.33;;;;;;;14.72;100.00;101017.28;20892623;28;20259;-64
2021/09/02 06:27:06;;;;;;;5.50;3.40;;;;;;;14.96;100.00;101012.00;20887841;28;20247;-64
2021/09/02 06:37:08;;;;;;;3.20;2.90;;;;;;;14.83;100.00;101024.56;20900613;28;20227;-64
2021/09/02 06:47:13;;;;;;;3.60;3.30;;;;;;;15.38;100.00;101029.53;20877367;28;20603;-64
2021/09/02 06:57:15;;;;;;;4.27;3.13;;;;;;;15.42;100.00;101015.75;20899614;28;20238;-64
2021/09/02 07:07:19;;;;;;;3.80;3.40;;;;;;;15.63;100.00;101024.09;20875764;28;20239;-64
2021/09/02 07:17:21;;;;;;;4.40;3.70;;;;;;;15.64;100.00;101015.06;20898112;28;20249;-64
2021/09/02 07:27:25;;;;;;;3.73;3.43;;;;;;;15.66;100.00;101037.31;20877664;28;20212;-65
2021/09/02 07:37:28;;;;;;;3.90;3.60;;;;;;;15.73;100.00;101043.97;20888883;28;20246;-63
2021/09/02 07:47:33;;;;;;;3.90;3.60;;;;;;;15.99;100.00;101062.69;20882584;28;20628;-64
2021/09/02 07:57:35;;;;;;;3.60;3.30;;;;;;;15.99;100.00;101079.72;20882173;28;20591;-64
2021/09/02 08:07:46;;;;;;;3.77;3.47;;;;;;;16.76;100.00;101072.91;20863601;28;20567;-64
2021/09/02 08:17:49;;;;;;;4.33;3.63;;;;;;;17.86;100.00;101077.56;20870379;28;20305;-64
2021/09/02 08:27:53;;;;;;;4.23;3.83;;;;;;;17.88;100.00;101079.13;20892534;28;20693;-64
2021/09/02 08:37:57;;;;;;;3.80;3.50;;;;;;;18.72;100.00;101077.44;20868384;28;20740;-64
2021/09/02 08:48:01;;;;;;;4.27;3.87;;;;;;;18.30;100.00;101081.94;20891685;28;20644;-64
2021/09/02 08:58:04;;;;;;;4.70;3.90;;;;;;;17.72;100.00;101085.94;20871160;28;20648;-64
2021/09/02 09:08:12;;;;;;;3.57;3.27;;;;;;;17.69;100.00;101096.97;20887224;28;20541;-65
2021/09/02 09:18:16;;;;;;;5.57;3.70;;;;;;;18.75;100.00;101114.19;20877119;28;20240;-64
2021/09/02 09:28:32;;;;;;;4.60;3.40;;;;;;;18.93;96.34;101118.88;20879572;28;20320;-64
2021/09/02 09:38:39;;;;;;;3.27;2.87;;;;;;;19.46;93.31;101126.84;20883751;28;20318;-64
2021/09/02 09:48:43;;;;;;;3.20;2.63;;;;;;;20.00;83.10;101112.06;20883190;28;20238;-65
2021/09/02 09:58:46;;;;;;;3.10;2.80;;;;;;;19.15;88.53;101117.00;20903776;28;20304;-65
2021/09/02 10:08:50;;;;;;;2.90;2.70;;;;;;;18.76;82.19;101121.31;20878322;28;20220;-64
2021/09/02 10:18:53;;;;;;;2.40;2.20;;;;;;;18.81;74.56;101129.91;20900633;28;20234;-63
2021/09/02 10:28:56;;;;;;;2.60;2.40;;;;;;;18.61;73.47;101134.28;20879032;28;20233;-65
2021/09/02 10:38:59;;;;;;;3.43;2.23;;;;;;;18.81;73.70;101132.59;20899158;28;20710;-66
2021/09/02 10:49:23;;;;;;;4.30;2.60;;;;;;;18.90;67.45;101140.78;20884804;28;20371;-64
2021/09/02 10:59:36;;;;;;;2.47;2.13;;;;;;;19.64;69.08;101140.63;20892231;28;20306;-65
2021/09/02 11:09:41;;;;;;;2.20;2.03;;;;;;;19.85;64.46;101137.84;20890189;28;20231;-65
2021/09/02 11:19:44;;;;;;;2.50;2.30;;;;;;;20.27;67.25;101133.94;20883254;28;20230;-64
2021/09/02 11:29:48;;;;;;;2.67;2.47;;;;;;;20.18;65.89;101134.75;20896094;28;20293;-63
2021/09/02 11:39:56;;;;;;;2.77;2.03;;;;;;;20.14;64.36;101127.94;20873297;28;20397;-64
2021/09/02 11:50:01;;;;;;;2.13;1.93;;;;;;;20.45;61.53;101145.81;20895112;28;20308;-64
2021/09/02 12:00:04;;;;;;;3.47;2.30;;;;;;;20.38;62.23;101147.41;20870693;28;20255;-64
2021/09/02 12:10:10;;;;;;;2.60;2.40;;;;;;;20.24;64.84;101139.63;20893026;28;20219;-64
2021/09/02 12:20:12;;;;;;;3.43;2.57;;;;;;;21.43;63.24;101141.97;20873877;28;20239;-64
2021/09/02 12:30:17;;;;;;;3.23;2.77;;;;;;;20.82;62.76;101136.94;20888328;28;20231;-67
2021/09/02 12:40:20;;;;;;;2.73;2.30;;;;;;;20.60;63.37;101134.53;20880448;28;20235;-64
2021/09/02 12:50:25;;;;;;;3.57;2.33;;;;;;;20.18;62.38;101133.91;20859673;28;20230;-63
2021/09/02 13:00:30;;;;;;;3.90;2.10;;;;;;;20.01;68.63;101128.19;20814489;28;20223;-64
2021/09/02 13:10:35;;;;;;;2.47;2.27;;;;;;;20.10;66.12;101134.63;20789303;28;20278;-64
2021/09/02 13:20:37;;;;;;;2.00;1.80;;;;;;;20.76;62.60;101149.25;20815371;28;20303;-64
2021/09/02 13:30:41;;;;;;;2.20;2.00;;;;;;;21.13;61.99;101138.44;20806423;28;20505;-64
2021/09/02 13:40:44;;;;;;;2.67;1.90;;;;;;;21.36;59.11;101160.75;20821596;28;20343;-65
2021/09/02 13:50:48;;;;;;;2.23;1.80;;;;;;;20.62;66.84;101148.81;20820157;28;20227;-64
2021/09/02 14:00:50;;;;;;;2.33;2.03;;;;;;;19.72;68.90;101136.22;20886837;28;20318;-66
2021/09/02 14:10:54;;;;;;;2.00;1.80;;;;;;;19.32;66.00;101135.34;20884350;28;20280;-63
2021/09/02 14:20:56;;;;;;;3.43;2.00;;;;;;;19.14;66.85;101120.69;20879701;28;20235;-63
2021/09/02 14:31:00;;;;;;;3.97;2.20;;;;;;;19.27;70.71;101127.63;20896685;28;20911;-63
2021/09/02 14:41:03;;;;;;;2.77;1.90;;;;;;;19.12;67.25;101128.09;20881711;28;20455;-64
2021/09/02 14:51:07;;;;;;;3.30;1.90;;;;;;;18.93;70.54;101118.88;20899898;28;20315;-63
2021/09/02 15:01:09;;;;;;;2.63;2.13;;;;;;;18.93;70.23;101102.66;20875319;28;20245;-63
2021/09/02 15:11:13;;;;;;;2.80;1.83;;;;;;;19.02;73.14;101096.44;20896682;28;20404;-64
2021/09/02 15:21:15;;;;;;;1.93;1.80;;;;;;;19.01;69.76;101100.13;20807433;28;20498;-63
2021/09/02 15:31:19;;;;;;;3.07;1.97;;;;;;;18.82;64.66;101100.03;20799663;28;20799;-63
2021/09/02 15:41:21;;;;;;;2.27;2.07;;;;;;;19.01;68.51;101108.25;20794858;28;21096;-64
2021/09/02 15:51:25;;;;;;;2.23;1.73;;;;;;;18.92;68.60;101111.75;20803707;28;20680;-63
2021/09/02 16:01:28;;;;;;;2.03;1.60;;;;;;;18.54;72.80;101109.59;20805847;28;20600;-66
2021/09/02 16:11:32;;;;;;;2.70;1.80;;;;;;;17.91;77.41;101097.78;20793226;28;20649;-63
2021/09/02 16:21:34;;;;;;;2.90;1.67;;;;;;;17.62;79.81;101100.16;20698625;28;20280;-63
2021/09/02 16:31:38;;;;;;;1.70;1.43;;;;;;;17.32;83.26;101099.91;20812964;28;20725;-61
2021/09/02 16:41:41;;;;;;;4.00;2.23;;;;;;;16.93;80.21;101091.31;20840254;28;20234;-63
2021/09/02 16:51:45;;;;;;;2.50;1.80;;;;;;;16.55;85.06;101098.78;20809717;28;20259;-59
2021/09/02 17:01:47;;;;;;;2.30;1.90;;;;;;;15.96;92.23;101096.06;20802067;28;21022;-60
2021/09/02 17:11:51;;;;;;;2.60;2.00;;;;;;;15.29;100.00;101095.59;20818083;28;20243;-62
2021/09/02 17:21:54;;;;;;;2.13;1.80;;;;;;;14.69;100.00;101107.00;20772927;28;20406;-61
2021/09/02 17:31:58;;;;;;;2.23;1.93;;;;;;;14.12;100.00;101100.19;20836494;28;20308;-63
2021/09/02 17:42:01;;;;;;;2.43;2.23;;;;;;;13.56;100.00;101104.72;20830993;28;20234;-64
2021/09/02 17:52:29;;;;;;;2.67;2.30;;;;;;;13.06;100.00;101114.09;20783303;28;20227;-61
2021/09/02 18:02:32;;;;;;;2.37;2.10;;;;;;;12.63;100.00;101129.25;20731814;28;20830;-64
2021/09/02 18:12:36;;;;;;;2.37;1.30;;;;;;;12.28;100.00;101131.34;20721716;28;20655;-64
2021/09/02 18:22:39;;;;;;;1.67;1.57;;;;;;;11.99;100.00;101140.19;20609284;28;20272;-63
2021/09/02 18:32:43;;;;;;;2.07;1.40;;;;;;;11.68;100.00;101143.69;20656890;28;20227;-63
2021/09/02 18:42:46;;;;;;;2.30;1.83;;;;;;;11.47;100.00;101145.75;20640451;28;20253;-63
2021/09/02 18:52:51;;;;;;;1.90;1.77;;;;;;;11.19;100.00;101152.59;20695389;28;20804;-64
2021/09/02 19:02:56;;;;;;;3.90;2.20;;;;;;;11.10;100.00;101145.06;20741828;28;20731;-70
2021/09/02 19:13:04;;;;;;;2.57;2.23;;;;;;;10.83;100.00;101151.84;20609203;28;20664;-68
2021/09/02 19:23:07;;;;;;;1.70;1.60;;;;;;;10.44;100.00;101160.09;20735078;28;20577;-66
2021/09/02 19:33:13;;;;;;;2.13;1.80;;;;;;;10.06;100.00;101160.16;20599382;28;20241;-69
2021/09/02 19:43:21;;;;;;;2.10;1.90;;;;;;;9.91;100.00;101154.69;20638555;28;20634;-67
2021/09/02 19:53:25;;;;;;;2.83;1.80;;;;;;;9.77;100.00;101157.16;20663061;28;20408;-67
2021/09/02 20:03:33;;;;;;;2.13;1.90;;;;;;;9.62;100.00;101153.41;20629670;28;20230;-69
2021/09/02 20:13:37;;;;;;;1.90;1.80;;;;;;;9.48;100.00;101148.72;20649257;28;20644;-68
2021/09/02 20:23:41;;;;;;;1.40;1.30;;;;;;;9.41;100.00;101149.09;20624371;28;20233;-67
2021/09/02 20:33:49;;;;;;;3.17;2.67;;;;;;;9.23;100.00;101167.63;20734720;28;20242;-68
2021/09/02 20:43:53;;;;;;;7.43;4.73;;;;;;;9.13;100.00;101173.44;20788573;28;20227;-67
2021/09/02 20:53:58;;;;;;;5.70;3.90;;;;;;;8.89;100.00;101162.94;20807496;28;20274;-69
2021/09/02 21:04:00;;;;;;;4.07;3.53;;;;;;;8.65;100.00;101166.66;20793794;28;20279;-67
2021/09/02 21:14:04;;;;;;;2.70;2.23;;;;;;;8.48;100.00;101155.88;20800405;28;20224;-69
2021/09/02 21:24:12;;;;;;;4.63;3.07;;;;;;;8.37;100.00;101163.44;20800535;28;20232;-68
2021/09/02 21:34:19;;;;;;;3.10;2.80;;;;;;;8.34;100.00;101163.56;20792217;28;20244;-67
2021/09/02 21:44:21;;;;;;;3.27;2.40;;;;;;;8.25;100.00;101157.66;20818229;28;20651;-68
2021/09/02 21:54:27;;;;;;;4.27;2.60;;;;;;;8.09;100.00;101164.53;20799037;28;20302;-65
2021/09/02 22:04:31;;;;;;;3.50;2.60;;;;;;;8.10;100.00;101163.59;20818431;28;20238;-63
2021/09/02 22:14:40;;;;;;;3.70;3.10;;;;;;;8.05;100.00;101181.56;20797229;28;20236;-65
2021/09/02 22:24:50;;;;;;;4.40;3.30;;;;;;;8.06;100.00;101169.13;20819782;28;20239;-63
2021/09/02 22:34:54;;;;;;;4.77;2.80;;;;;;;7.92;100.00;101161.69;20799564;28;20611;-62
2021/09/02 22:44:57;;;;;;;4.13;2.70;;;;;;;7.67;100.00;101160.94;20814565;28;20230;-62
2021/09/02 22:55:01;;;;;;;4.40;3.53;;;;;;;7.74;100.00;101162.41;20804996;28;20235;-64
2021/09/02 23:05:04;;;;;;;4.70;3.87;;;;;;;7.83;100.00;101141.69;20871555;28;20241;-61
2021/09/02 23:15:10;;;;;;;4.20;3.53;;;;;;;7.78;100.00;101134.81;20894015;28;20269;-65
2021/09/02 23:25:15;;;;;;;3.90;3.17;;;;;;;7.56;100.00;101133.00;20846539;28;20328;-66
2021/09/02 23:35:19;;;;;;;3.67;3.33;;;;;;;7.62;100.00;101131.00;20814441;28;20232;-65
2021/09/02 23:45:26;;;;;;;5.17;4.20;;;;;;;7.68;100.00;101120.16;20790318;28;20227;-63
2021/09/02 23:55:30;;;;;;;4.57;3.70;;;;;;;7.52;100.00;101101.28;20813366;28;20235;-62
